sensor_id;sensor_type;location;lat;lon;timestamp;pressure;altitude;pressure_sealevel;temperature;humidity
39769;BME280;38939;47.824;14.642;2023-03-12T00:00:20;96415.38;;;3.92;55.61
39769;BME280;38939;47.824;14.642;2023-03-12T00:01:22;96419.25;;;3.96;55.64
39769;BME280;38939;47.824;14.642;2023-03-12T00:02:24;96413.56;;;4.00;56.43
39769;BME280;38939;47.824;14.642;2023-03-12T00:03:26;96419.53;;;4.01;56.35
39769;BME280;38939;47.824;14.642;2023-03-12T00:04:29;96427.91;;;4.03;56.34
39769;BME280;38939;47.824;14.642;2023-03-12T00:05:31;96421.78;;;4.04;55.84
39769;BME280;38939;47.824;14.642;2023-03-12T00:06:33;96420.00;;;4.05;55.88
39769;BME280;38939;47.824;14.642;2023-03-12T00:07:35;96423.53;;;4.04;55.78
39769;BME280;38939;47.824;14.642;2023-03-12T00:08:37;96430.31;;;4.05;56.25
39769;BME280;38939;47.824;14.642;2023-03-12T00:09:39;96427.91;;;4.03;56.26
39769;BME280;38939;47.824;14.642;2023-03-12T00:10:41;96424.69;;;4.01;56.86
39769;BME280;38939;47.824;14.642;2023-03-12T00:11:43;96424.91;;;3.91;56.80
39769;BME280;38939;47.824;14.642;2023-03-12T00:12:45;96436.38;;;3.89;56.74
39769;BME280;38939;47.824;14.642;2023-03-12T00:13:50;96426.06;;;3.89;56.94
39769;BME280;38939;47.824;14.642;2023-03-12T00:14:52;96425.44;;;3.87;56.82
39769;BME280;38939;47.824;14.642;2023-03-12T00:15:54;96423.66;;;3.87;56.95
39769;BME280;38939;47.824;14.642;2023-03-12T00:16:55;96429.81;;;3.86;57.10
39769;BME280;38939;47.824;14.642;2023-03-12T00:17:57;96433.22;;;3.78;57.14
39769;BME280;38939;47.824;14.642;2023-03-12T00:18:59;96427.59;;;3.75;57.58
39769;BME280;38939;47.824;14.642;2023-03-12T00:20:02;96430.19;;;3.75;57.08
39769;BME280;38939;47.824;14.642;2023-03-12T00:21:04;96422.75;;;3.80;57.00
39769;BME280;38939;47.824;14.642;2023-03-12T00:22:06;96434.50;;;3.83;56.97
39769;BME280;38939;47.824;14.642;2023-03-12T00:23:08;96434.03;;;3.79;57.27
39769;BME280;38939;47.824;14.642;2023-03-12T00:24:10;96434.81;;;3.79;57.10
39769;BME280;38939;47.824;14.642;2023-03-12T00:25:13;96432.25;;;3.79;56.89
39769;BME280;38939;47.824;14.642;2023-03-12T00:26:16;96433.06;;;3.80;57.23
39769;BME280;38939;47.824;14.642;2023-03-12T00:27:18;96428.06;;;3.78;57.11
39769;BME280;38939;47.824;14.642;2023-03-12T00:28:20;96438.22;;;3.80;57.43
39769;BME280;38939;47.824;14.642;2023-03-12T00:29:22;96436.13;;;3.75;57.70
39769;BME280;38939;47.824;14.642;2023-03-12T00:30:24;96437.66;;;3.70;57.38
39769;BME280;38939;47.824;14.642;2023-03-12T00:31:30;96437.66;;;3.70;57.36
39769;BME280;38939;47.824;14.642;2023-03-12T00:32:33;96436.50;;;3.72;56.93
39769;BME280;38939;47.824;14.642;2023-03-12T00:33:35;96439.34;;;3.77;57.13
39769;BME280;38939;47.824;14.642;2023-03-12T00:34:37;96437.75;;;3.76;57.76
39769;BME280;38939;47.824;14.642;2023-03-12T00:35:39;96434.06;;;3.71;57.74
39769;BME280;38939;47.824;14.642;2023-03-12T00:36:41;96432.47;;;3.70;57.50
39769;BME280;38939;47.824;14.642;2023-03-12T00:37:43;96434.59;;;3.66;57.65
39769;BME280;38939;47.824;14.642;2023-03-12T00:38:45;96434.97;;;3.55;57.74
39769;BME280;38939;47.824;14.642;2023-03-12T00:39:47;96438.38;;;3.47;57.89
39769;BME280;38939;47.824;14.642;2023-03-12T00:40:48;96438.88;;;3.43;58.72
39769;BME280;38939;47.824;14.642;2023-03-12T00:41:50;96442.47;;;3.42;58.01
39769;BME280;38939;47.824;14.642;2023-03-12T00:42:52;96432.31;;;3.40;58.92
39769;BME280;38939;47.824;14.642;2023-03-12T00:43:54;96434.91;;;3.32;58.94
39769;BME280;38939;47.824;14.642;2023-03-12T00:44:56;96435.28;;;3.20;59.41
39769;BME280;38939;47.824;14.642;2023-03-12T00:45:58;96433.69;;;3.19;58.78
39769;BME280;38939;47.824;14.642;2023-03-12T00:47:00;96444.16;;;3.18;59.19
39769;BME280;38939;47.824;14.642;2023-03-12T00:48:02;96437.06;;;3.20;59.32
39769;BME280;38939;47.824;14.642;2023-03-12T00:49:04;96437.84;;;3.20;59.04
39769;BME280;38939;47.824;14.642;2023-03-12T00:50:06;96444.16;;;3.18;59.21
39769;BME280;38939;47.824;14.642;2023-03-12T00:51:07;96441.72;;;3.16;59.28
39769;BME280;38939;47.824;14.642;2023-03-12T00:52:09;96438.19;;;3.17;59.77
39769;BME280;38939;47.824;14.642;2023-03-12T00:53:11;96440.28;;;3.22;58.87
39769;BME280;38939;47.824;14.642;2023-03-12T00:54:13;96438.81;;;3.28;59.14
39769;BME280;38939;47.824;14.642;2023-03-12T00:55:15;96446.03;;;3.32;59.04
39769;BME280;38939;47.824;14.642;2023-03-12T00:56:17;96437.16;;;3.35;58.38
39769;BME280;38939;47.824;14.642;2023-03-12T00:57:19;96436.06;;;3.29;58.54
39769;BME280;38939;47.824;14.642;2023-03-12T00:58:21;96442.34;;;3.27;59.17
39769;BME280;38939;47.824;14.642;2023-03-12T00:59:23;96439.28;;;3.23;58.82
39769;BME280;38939;47.824;14.642;2023-03-12T01:00:24;96444.44;;;3.23;58.39
39769;BME280;38939;47.824;14.642;2023-03-12T01:01:26;96439.13;;;3.25;59.08
39769;BME280;38939;47.824;14.642;2023-03-12T01:02:28;96442.72;;;3.15;59.07
39769;BME280;38939;47.824;14.642;2023-03-12T01:03:30;96442.41;;;3.10;58.80
39769;BME280;38939;47.824;14.642;2023-03-12T01:04:32;96435.66;;;3.09;59.25
39769;BME280;38939;47.824;14.642;2023-03-12T01:05:34;96442.41;;;3.10;59.05
39769;BME280;38939;47.824;14.642;2023-03-12T01:06:38;96438.69;;;3.13;58.80
39769;BME280;38939;47.824;14.642;2023-03-12T01:07:40;96439.31;;;3.15;58.41
39769;BME280;38939;47.824;14.642;2023-03-12T01:08:42;96439.78;;;3.18;59.33
39769;BME280;38939;47.824;14.642;2023-03-12T01:09:44;96440.59;;;3.19;59.10
39769;BME280;38939;47.824;14.642;2023-03-12T01:10:45;96446.09;;;3.16;59.44
39769;BME280;38939;47.824;14.642;2023-03-12T01:11:47;96444.94;;;3.18;59.12
39769;BME280;38939;47.824;14.642;2023-03-12T01:12:49;96446.56;;;3.19;58.98
39769;BME280;38939;47.824;14.642;2023-03-12T01:13:51;96443.81;;;3.21;58.56
39769;BME280;38939;47.824;14.642;2023-03-12T01:14:53;96441.06;;;3.23;58.95
39769;BME280;38939;47.824;14.642;2023-03-12T01:15:55;96444.47;;;3.15;58.85
39769;BME280;38939;47.824;14.642;2023-03-12T01:16:57;96445.63;;;3.12;59.20
39769;BME280;38939;47.824;14.642;2023-03-12T01:17:58;96442.41;;;3.10;58.94
39769;BME280;38939;47.824;14.642;2023-03-12T01:19:01;96445.13;;;3.09;59.02
39769;BME280;38939;47.824;14.642;2023-03-12T01:20:03;96446.75;;;3.10;59.46
39769;BME280;38939;47.824;14.642;2023-03-12T01:21:06;96448.81;;;3.14;59.19
39769;BME280;38939;47.824;14.642;2023-03-12T01:22:08;96442.38;;;3.18;58.91
39769;BME280;38939;47.824;14.642;2023-03-12T01:23:10;96444.44;;;3.23;59.24
39769;BME280;38939;47.824;14.642;2023-03-12T01:24:11;96450.22;;;3.25;58.50
39769;BME280;38939;47.824;14.642;2023-03-12T01:25:14;96442.34;;;3.27;58.64
39769;BME280;38939;47.824;14.642;2023-03-12T01:26:16;96444.28;;;3.25;58.85
39769;BME280;38939;47.824;14.642;2023-03-12T01:27:18;96448.63;;;3.24;58.70
39769;BME280;38939;47.824;14.642;2023-03-12T01:28:21;96446.22;;;3.23;58.46
39769;BME280;38939;47.824;14.642;2023-03-12T01:29:23;96440.28;;;3.22;58.69
39769;BME280;38939;47.824;14.642;2023-03-12T01:30:25;96442.38;;;3.18;58.48
39769;BME280;38939;47.824;14.642;2023-03-12T01:31:28;96449.31;;;3.18;58.76
39769;BME280;38939;47.824;14.642;2023-03-12T01:32:29;96448.97;;;3.21;59.38
39769;BME280;38939;47.824;14.642;2023-03-12T01:33:31;96447.03;;;3.23;58.52
39769;BME280;38939;47.824;14.642;2023-03-12T01:34:33;96450.22;;;3.25;58.50
39769;BME280;38939;47.824;14.642;2023-03-12T01:35:36;96446.69;;;3.26;58.38
39769;BME280;38939;47.824;14.642;2023-03-12T01:36:40;96446.69;;;3.26;58.90
39769;BME280;38939;47.824;14.642;2023-03-12T01:37:42;96448.81;;;3.23;58.52
39769;BME280;38939;47.824;14.642;2023-03-12T01:38:44;96453.16;;;3.22;58.72
39769;BME280;38939;47.824;14.642;2023-03-12T01:39:46;96445.94;;;3.17;59.10
39769;BME280;38939;47.824;14.642;2023-03-12T01:40:48;96444.66;;;3.13;58.69
39769;BME280;38939;47.824;14.642;2023-03-12T01:41:50;96453.22;;;3.06;58.65
39769;BME280;38939;47.824;14.642;2023-03-12T01:42:52;96444.22;;;3.02;59.30
39769;BME280;38939;47.824;14.642;2023-03-12T01:43:54;96449.34;;;3.02;58.50
39769;BME280;38939;47.824;14.642;2023-03-12T01:45:00;96460.31;;;3.04;58.32
39769;BME280;38939;47.824;14.642;2023-03-12T01:47:04;96449.66;;;3.07;59.20
39769;BME280;38939;47.824;14.642;2023-03-12T01:48:06;96449.34;;;3.10;58.64
39769;BME280;38939;47.824;14.642;2023-03-12T01:50:09;96456.28;;;3.09;58.73
39769;BME280;38939;47.824;14.642;2023-03-12T01:51:12;96449.34;;;3.02;59.25
39769;BME280;38939;47.824;14.642;2023-03-12T01:52:17;96465.13;;;2.98;59.55
39769;BME280;38939;47.824;14.642;2023-03-12T01:53:21;96467.06;;;2.96;59.70
39769;BME280;38939;47.824;14.642;2023-03-12T01:55:25;96465.13;;;2.98;59.09
39769;BME280;38939;47.824;14.642;2023-03-12T01:56:29;96464.03;;;3.01;59.45
39769;BME280;38939;47.824;14.642;2023-03-12T01:57:37;96464.81;;;3.02;59.13
39769;BME280;38939;47.824;14.642;2023-03-12T01:58:41;96469.19;;;3.01;59.44
39769;BME280;38939;47.824;14.642;2023-03-12T01:59:45;96469.19;;;3.01;59.74
39769;BME280;38939;47.824;14.642;2023-03-12T02:00:47;96463.19;;;3.00;59.16
39769;BME280;38939;47.824;14.642;2023-03-12T02:01:49;96463.84;;;3.03;59.19
39769;BME280;38939;47.824;14.642;2023-03-12T02:02:53;96461.91;;;2.96;60.37
39769;BME280;38939;47.824;14.642;2023-03-12T02:03:55;96467.25;;;2.87;60.21
39769;BME280;38939;47.824;14.642;2023-03-12T02:05:05;96467.72;;;2.90;60.22
39769;BME280;38939;47.824;14.642;2023-03-12T02:06:13;96470.63;;;2.95;60.51
39769;BME280;38939;47.824;14.642;2023-03-12T02:07:16;96465.97;;;2.99;60.20
39769;BME280;38939;47.824;14.642;2023-03-12T02:08:18;96459.81;;;3.00;60.02
39769;BME280;38939;47.824;14.642;2023-03-12T02:09:20;96457.91;;;2.94;60.25
39769;BME280;38939;47.824;14.642;2023-03-12T02:10:23;96455.97;;;2.96;60.72
39769;BME280;38939;47.824;14.642;2023-03-12T02:11:26;96461.91;;;2.96;60.29
39769;BME280;38939;47.824;14.642;2023-03-12T02:12:28;96463.38;;;2.91;60.36
39769;BME280;38939;47.824;14.642;2023-03-12T02:13:29;96467.56;;;2.92;60.72
39769;BME280;38939;47.824;14.642;2023-03-12T02:14:31;96459.69;;;2.93;60.00
39769;BME280;38939;47.824;14.642;2023-03-12T02:15:34;96459.84;;;2.92;60.59
39769;BME280;38939;47.824;14.642;2023-03-12T02:16:36;96460.00;;;2.90;60.32
39769;BME280;38939;47.824;14.642;2023-03-12T02:17:38;96461.00;;;2.89;60.90
39769;BME280;38939;47.824;14.642;2023-03-12T02:18:41;96460.03;;;2.82;60.86
39769;BME280;38939;47.824;14.642;2023-03-12T02:21:04;96460.53;;;2.69;61.33
39769;BME280;38939;47.824;14.642;2023-03-12T02:22:10;96462.13;;;2.70;60.54
39769;BME280;38939;47.824;14.642;2023-03-12T02:24:25;96467.44;;;2.77;60.67
39769;BME280;38939;47.824;14.642;2023-03-12T02:25:30;96473.88;;;2.81;61.30
39769;BME280;38939;47.824;14.642;2023-03-12T02:26:36;96470.00;;;2.85;61.36
39769;BME280;38939;47.824;14.642;2023-03-12T02:27:38;96478.38;;;2.87;61.57
39769;BME280;38939;47.824;14.642;2023-03-12T02:28:40;96472.09;;;2.90;60.62
39769;BME280;38939;47.824;14.642;2023-03-12T02:29:44;96482.25;;;2.91;60.22
39769;BME280;38939;47.824;14.642;2023-03-12T02:30:47;96483.19;;;2.90;60.51
39769;BME280;38939;47.824;14.642;2023-03-12T02:31:51;96481.41;;;2.91;59.60
39769;BME280;38939;47.824;14.642;2023-03-12T02:32:53;96481.25;;;2.92;60.59
39769;BME280;38939;47.824;14.642;2023-03-12T02:33:56;96483.03;;;2.92;60.81
39769;BME280;38939;47.824;14.642;2023-03-12T02:34:59;96483.69;;;2.94;60.22
39769;BME280;38939;47.824;14.642;2023-03-12T02:36:01;96486.09;;;2.95;60.35
39769;BME280;38939;47.824;14.642;2023-03-12T02:37:03;96488.66;;;2.95;60.74
39769;BME280;38939;47.824;14.642;2023-03-12T02:38:26;96484.16;;;2.97;60.56
39769;BME280;38939;47.824;14.642;2023-03-12T02:39:26;96488.34;;;2.98;60.18
39769;BME280;38939;47.824;14.642;2023-03-12T02:40:40;96488.16;;;3.00;60.06
39769;BME280;38939;47.824;14.642;2023-03-12T02:41:45;96488.03;;;2.93;60.14
39769;BME280;38939;47.824;14.642;2023-03-12T02:42:48;96486.59;;;2.83;60.71
39769;BME280;38939;47.824;14.642;2023-03-12T02:43:54;96489.00;;;2.76;60.81
39769;BME280;38939;47.824;14.642;2023-03-12T02:44:58;96483.22;;;2.74;60.52
39769;BME280;38939;47.824;14.642;2023-03-12T02:46:00;96484.84;;;2.75;60.43
39769;BME280;38939;47.824;14.642;2023-03-12T02:47:03;96498.38;;;2.77;59.97
39769;BME280;38939;47.824;14.642;2023-03-12T02:48:07;96492.88;;;2.80;60.17
39769;BME280;38939;47.824;14.642;2023-03-12T02:49:10;96489.97;;;2.83;60.43
39769;BME280;38939;47.824;14.642;2023-03-12T02:50:13;96487.41;;;2.83;60.31
39769;BME280;38939;47.824;14.642;2023-03-12T02:51:16;96491.59;;;2.84;60.21
39769;BME280;38939;47.824;14.642;2023-03-12T02:52:18;96491.59;;;2.84;60.03
39769;BME280;38939;47.824;14.642;2023-03-12T02:53:19;96501.88;;;2.84;60.01
39769;BME280;38939;47.824;14.642;2023-03-12T02:54:21;96500.94;;;2.77;60.03
39769;BME280;38939;47.824;14.642;2023-03-12T02:55:23;96499.66;;;2.73;60.54
39769;BME280;38939;47.824;14.642;2023-03-12T02:56:26;96498.69;;;2.74;60.34
39769;BME280;38939;47.824;14.642;2023-03-12T02:57:28;96506.09;;;2.77;60.73
39769;BME280;38939;47.824;14.642;2023-03-12T02:58:30;96508.34;;;2.80;59.99
39769;BME280;38939;47.824;14.642;2023-03-12T02:59:32;96510.91;;;2.80;60.35
39769;BME280;38939;47.824;14.642;2023-03-12T03:00:33;96511.88;;;2.79;60.24
39769;BME280;38939;47.824;14.642;2023-03-12T03:01:35;96507.03;;;2.76;60.35
39769;BME280;38939;47.824;14.642;2023-03-12T03:02:38;96508.03;;;2.75;61.12
39769;BME280;38939;47.824;14.642;2023-03-12T03:03:40;96515.75;;;2.75;61.13
39769;BME280;38939;47.824;14.642;2023-03-12T03:04:41;96518.34;;;2.75;60.89
39769;BME280;38939;47.824;14.642;2023-03-12T03:05:43;96517.03;;;2.71;60.89
39769;BME280;38939;47.824;14.642;2023-03-12T03:06:45;96518.97;;;2.69;61.38
39769;BME280;38939;47.824;14.642;2023-03-12T03:07:48;96521.56;;;2.69;61.08
39769;BME280;38939;47.824;14.642;2023-03-12T03:08:50;96529.44;;;2.67;60.92
39769;BME280;38939;47.824;14.642;2023-03-12T03:09:52;96520.28;;;2.65;60.83
39769;BME280;38939;47.824;14.642;2023-03-12T03:10:54;96530.56;;;2.65;60.60
39769;BME280;38939;47.824;14.642;2023-03-12T03:11:56;96523.50;;;2.67;60.46
39769;BME280;38939;47.824;14.642;2023-03-12T03:12:58;96527.50;;;2.69;60.27
39769;BME280;38939;47.824;14.642;2023-03-12T03:14:00;96530.09;;;2.69;60.54
39769;BME280;38939;47.824;14.642;2023-03-12T03:15:04;96533.44;;;2.70;60.71
39769;BME280;38939;47.824;14.642;2023-03-12T03:16:06;96523.94;;;2.62;61.18
39769;BME280;38939;47.824;14.642;2023-03-12T03:17:08;96538.28;;;2.56;60.95
39769;BME280;38939;47.824;14.642;2023-03-12T03:18:10;96534.91;;;2.56;61.00
39769;BME280;38939;47.824;14.642;2023-03-12T03:19:12;96540.69;;;2.58;61.47
39769;BME280;38939;47.824;14.642;2023-03-12T03:20:14;96536.03;;;2.62;60.63
39769;BME280;38939;47.824;14.642;2023-03-12T03:21:16;96534.75;;;2.66;61.09
39769;BME280;38939;47.824;14.642;2023-03-12T03:22:19;96538.94;;;2.67;60.69
39769;BME280;38939;47.824;14.642;2023-03-12T03:23:21;96540.88;;;2.65;60.38
39769;BME280;38939;47.824;14.642;2023-03-12T03:24:23;96542.47;;;2.66;60.91
39769;BME280;38939;47.824;14.642;2023-03-12T03:25:25;96542.16;;;2.69;60.33
39769;BME280;38939;47.824;14.642;2023-03-12T03:26:27;96543.75;;;2.70;60.68
39769;BME280;38939;47.824;14.642;2023-03-12T03:27:29;96545.38;;;2.71;60.13
39769;BME280;38939;47.824;14.642;2023-03-12T03:28:30;96541.03;;;2.71;60.28
39769;BME280;38939;47.824;14.642;2023-03-12T03:29:32;96541.34;;;2.68;60.45
39769;BME280;38939;47.824;14.642;2023-03-12T03:30:37;96540.22;;;2.71;60.97
39769;BME280;38939;47.824;14.642;2023-03-12T03:31:39;96538.13;;;2.66;61.48
39769;BME280;38939;47.824;14.642;2023-03-12T03:32:41;96536.81;;;2.62;61.75
39769;BME280;38939;47.824;14.642;2023-03-12T03:33:43;96537.16;;;2.59;61.66
39769;BME280;38939;47.824;14.642;2023-03-12T03:34:45;96538.59;;;2.62;61.33
39769;BME280;38939;47.824;14.642;2023-03-12T03:35:47;96538.44;;;2.55;61.04
39769;BME280;38939;47.824;14.642;2023-03-12T03:36:49;96539.41;;;2.54;60.59
39769;BME280;38939;47.824;14.642;2023-03-12T03:37:51;96540.84;;;2.56;60.71
39769;BME280;38939;47.824;14.642;2023-03-12T03:38:53;96539.09;;;2.57;60.66
39769;BME280;38939;47.824;14.642;2023-03-12T03:39:55;96534.75;;;2.57;61.21
39769;BME280;38939;47.824;14.642;2023-03-12T03:40:57;96540.69;;;2.58;61.13
39769;BME280;38939;47.824;14.642;2023-03-12T03:41:59;96536.97;;;2.60;61.13
39769;BME280;38939;47.824;14.642;2023-03-12T03:43:01;96542.97;;;2.61;61.63
39769;BME280;38939;47.824;14.642;2023-03-12T03:44:03;96538.75;;;2.60;61.15
39769;BME280;38939;47.824;14.642;2023-03-12T03:45:06;96544.72;;;2.60;60.16
39769;BME280;38939;47.824;14.642;2023-03-12T03:46:08;96537.81;;;2.61;60.94
39769;BME280;38939;47.824;14.642;2023-03-12T03:47:11;96539.25;;;2.64;60.86
39769;BME280;38939;47.824;14.642;2023-03-12T03:48:13;96539.91;;;2.66;60.22
39769;BME280;38939;47.824;14.642;2023-03-12T03:49:15;96543.75;;;2.70;60.85
39769;BME280;38939;47.824;14.642;2023-03-12T03:50:17;96541.81;;;2.72;60.90
39769;BME280;38939;47.824;14.642;2023-03-12T03:51:19;96542.97;;;2.69;61.44
39769;BME280;38939;47.824;14.642;2023-03-12T03:52:21;96541.81;;;2.64;60.85
39769;BME280;38939;47.824;14.642;2023-03-12T03:53:23;96542.81;;;2.63;61.07
39769;BME280;38939;47.824;14.642;2023-03-12T03:54:25;96541.69;;;2.65;61.18
39769;BME280;38939;47.824;14.642;2023-03-12T03:55:26;96542.31;;;2.67;60.86
39769;BME280;38939;47.824;14.642;2023-03-12T03:56:28;96542.16;;;2.69;60.65
39769;BME280;38939;47.824;14.642;2023-03-12T03:57:30;96543.91;;;2.68;60.83
39769;BME280;38939;47.824;14.642;2023-03-12T03:58:32;96544.41;;;2.64;61.09
39769;BME280;38939;47.824;14.642;2023-03-12T03:59:34;96547.13;;;2.62;61.05
39769;BME280;38939;47.824;14.642;2023-03-12T04:00:36;96540.69;;;2.58;61.38
39769;BME280;38939;47.824;14.642;2023-03-12T04:01:38;96544.06;;;2.50;61.69
39769;BME280;38939;47.824;14.642;2023-03-12T04:02:40;96537.63;;;2.46;61.53
39769;BME280;38939;47.824;14.642;2023-03-12T04:03:41;96538.91;;;2.42;61.63
39769;BME280;38939;47.824;14.642;2023-03-12T04:04:43;96546.47;;;2.35;62.30
39769;BME280;38939;47.824;14.642;2023-03-12T04:05:45;96543.25;;;2.33;62.20
39769;BME280;38939;47.824;14.642;2023-03-12T04:06:47;96541.81;;;2.31;62.72
39769;BME280;38939;47.824;14.642;2023-03-12T04:07:50;96543.09;;;2.27;62.38
39769;BME280;38939;47.824;14.642;2023-03-12T04:08:53;96533.44;;;2.29;62.43
39769;BME280;38939;47.824;14.642;2023-03-12T04:09:55;96541.16;;;2.29;62.13
39769;BME280;38939;47.824;14.642;2023-03-12T04:10:58;96539.22;;;2.23;62.85
39769;BME280;38939;47.824;14.642;2023-03-12T04:11:59;96541.16;;;2.20;62.73
39769;BME280;38939;47.824;14.642;2023-03-12T04:13:01;96541.16;;;2.20;62.49
39769;BME280;38939;47.824;14.642;2023-03-12T04:14:03;96542.88;;;2.20;62.20
39769;BME280;38939;47.824;14.642;2023-03-12T04:15:05;96545.94;;;2.15;62.42
39769;BME280;38939;47.824;14.642;2023-03-12T04:16:07;96542.22;;;2.10;62.65
39769;BME280;38939;47.824;14.642;2023-03-12T04:17:09;96541.28;;;2.11;62.96
39769;BME280;38939;47.824;14.642;2023-03-12T04:18:11;96546.28;;;2.12;63.62
39769;BME280;38939;47.824;14.642;2023-03-12T04:19:13;96546.44;;;2.11;63.10
39769;BME280;38939;47.824;14.642;2023-03-12T04:20:15;96542.22;;;2.10;63.58
39769;BME280;38939;47.824;14.642;2023-03-12T04:21:17;96549.31;;;2.08;62.98
39769;BME280;38939;47.824;14.642;2023-03-12T04:22:19;96554.78;;;2.05;63.34
39769;BME280;38939;47.824;14.642;2023-03-12T04:23:21;96548.50;;;2.07;63.59
39769;BME280;38939;47.824;14.642;2023-03-12T04:24:23;96546.09;;;2.14;63.03
39769;BME280;38939;47.824;14.642;2023-03-12T04:25:24;96549.03;;;2.19;62.38
39769;BME280;38939;47.824;14.642;2023-03-12T04:26:26;96550.47;;;2.22;62.98
39769;BME280;38939;47.824;14.642;2023-03-12T04:27:28;96547.41;;;2.26;62.69
39769;BME280;38939;47.824;14.642;2023-03-12T04:28:30;96552.25;;;2.29;61.65
39769;BME280;38939;47.824;14.642;2023-03-12T04:29:32;96548.22;;;2.27;62.41
39769;BME280;38939;47.824;14.642;2023-03-12T04:30:34;96553.03;;;2.22;62.57
39769;BME280;38939;47.824;14.642;2023-03-12T04:31:38;96554.00;;;2.20;62.83
39769;BME280;38939;47.824;14.642;2023-03-12T04:32:40;96559.97;;;2.21;62.16
39769;BME280;38939;47.824;14.642;2023-03-12T04:33:42;96558.50;;;2.18;61.88
39769;BME280;38939;47.824;14.642;2023-03-12T04:34:44;96562.03;;;2.17;62.47
39769;BME280;38939;47.824;14.642;2023-03-12T04:35:49;96556.88;;;2.09;63.18
39769;BME280;38939;47.824;14.642;2023-03-12T04:36:52;96555.56;;;2.05;62.37
39769;BME280;38939;47.824;14.642;2023-03-12T04:37:54;96558.78;;;2.07;63.08
39769;BME280;38939;47.824;14.642;2023-03-12T04:38:56;96555.28;;;2.08;62.23
39769;BME280;38939;47.824;14.642;2023-03-12T04:39:57;96552.53;;;2.10;63.02
39769;BME280;38939;47.824;14.642;2023-03-12T04:41:07;96551.44;;;2.12;62.20
39769;BME280;38939;47.824;14.642;2023-03-12T04:42:09;96553.81;;;2.14;63.15
39769;BME280;38939;47.824;14.642;2023-03-12T04:43:11;96555.28;;;2.16;63.15
39769;BME280;38939;47.824;14.642;2023-03-12T04:44:13;96558.16;;;2.13;63.08
39769;BME280;38939;47.824;14.642;2023-03-12T04:45:15;96563.66;;;2.10;62.37
39769;BME280;38939;47.824;14.642;2023-03-12T04:46:17;96561.53;;;2.06;62.60
39769;BME280;38939;47.824;14.642;2023-03-12T04:47:19;96556.84;;;2.01;62.39
39769;BME280;38939;47.824;14.642;2023-03-12T04:48:21;96559.13;;;2.04;62.06
39769;BME280;38939;47.824;14.642;2023-03-12T04:49:23;96559.44;;;2.09;62.61
39769;BME280;38939;47.824;14.642;2023-03-12T04:50:25;96560.75;;;2.13;62.14
39769;BME280;38939;47.824;14.642;2023-03-12T04:51:27;96558.97;;;2.14;62.85
39769;BME280;38939;47.824;14.642;2023-03-12T04:52:30;96557.53;;;2.11;62.34
39769;BME280;38939;47.824;14.642;2023-03-12T04:53:32;96559.44;;;2.09;63.04
39769;BME280;38939;47.824;14.642;2023-03-12T04:54:34;96566.38;;;2.09;63.11
39769;BME280;38939;47.824;14.642;2023-03-12T04:55:36;96562.34;;;2.06;63.53
39769;BME280;38939;47.824;14.642;2023-03-12T04:56:37;96557.84;;;2.08;63.08
39769;BME280;38939;47.824;14.642;2023-03-12T04:57:39;96562.81;;;2.10;62.20
39769;BME280;38939;47.824;14.642;2023-03-12T04:58:41;96565.56;;;2.08;63.04
39769;BME280;38939;47.824;14.642;2023-03-12T04:59:43;96570.06;;;2.06;63.60
39769;BME280;38939;47.824;14.642;2023-03-12T05:00:45;96569.25;;;2.06;63.67
39769;BME280;38939;47.824;14.642;2023-03-12T05:01:47;96561.38;;;2.07;62.64
39769;BME280;38939;47.824;14.642;2023-03-12T05:02:49;96568.78;;;2.10;62.79
39769;BME280;38939;47.824;14.642;2023-03-12T05:03:51;96569.44;;;2.12;62.69
39769;BME280;38939;47.824;14.642;2023-03-12T05:04:54;96563.16;;;2.15;62.91
39769;BME280;38939;47.824;14.642;2023-03-12T05:05:57;96570.72;;;2.16;62.23
39769;BME280;38939;47.824;14.642;2023-03-12T05:06:59;96579.09;;;2.10;63.17
39769;BME280;38939;47.824;14.642;2023-03-12T05:08:01;96576.31;;;2.04;63.48
39769;BME280;38939;47.824;14.642;2023-03-12T05:09:03;96570.84;;;1.98;63.41
39769;BME280;38939;47.824;14.642;2023-03-12T05:10:05;96570.69;;;2.00;64.10
39769;BME280;38939;47.824;14.642;2023-03-12T05:11:07;96570.03;;;1.98;64.35
39769;BME280;38939;47.824;14.642;2023-03-12T05:12:09;96572.63;;;1.98;64.40
39769;BME280;38939;47.824;14.642;2023-03-12T05:13:12;96581.13;;;1.98;63.48
39769;BME280;38939;47.824;14.642;2023-03-12T05:14:14;96583.06;;;1.96;64.19
39769;BME280;38939;47.824;14.642;2023-03-12T05:15:16;96584.66;;;1.97;63.53
39769;BME280;38939;47.824;14.642;2023-03-12T05:16:18;96582.91;;;1.98;63.20
39769;BME280;38939;47.824;14.642;2023-03-12T05:17:20;96579.34;;;1.99;63.25
39769;BME280;38939;47.824;14.642;2023-03-12T05:18:22;96585.16;;;2.01;64.43
39769;BME280;38939;47.824;14.642;2023-03-12T05:19:24;96580.00;;;2.01;63.74
39769;BME280;38939;47.824;14.642;2023-03-12T05:20:26;96583.38;;;2.02;64.40
39769;BME280;38939;47.824;14.642;2023-03-12T05:21:28;96590.16;;;2.03;63.77
39769;BME280;38939;47.824;14.642;2023-03-12T05:22:29;96585.47;;;1.98;63.36
39769;BME280;38939;47.824;14.642;2023-03-12T05:23:31;96582.84;;;1.90;64.47
39769;BME280;38939;47.824;14.642;2023-03-12T05:24:34;96588.81;;;1.90;63.27
39769;BME280;38939;47.824;14.642;2023-03-12T05:25:39;96589.28;;;1.94;63.99
39769;BME280;38939;47.824;14.642;2023-03-12T05:26:42;96587.38;;;1.96;63.51
39769;BME280;38939;47.824;14.642;2023-03-12T05:27:44;96588.19;;;1.96;63.56
39769;BME280;38939;47.824;14.642;2023-03-12T05:28:46;96605.88;;;1.99;63.86
39769;BME280;38939;47.824;14.642;2023-03-12T05:29:48;96591.44;;;1.98;64.34
39769;BME280;38939;47.824;14.642;2023-03-12T05:30:49;96592.06;;;2.00;63.03
39769;BME280;38939;47.824;14.642;2023-03-12T05:31:51;96603.00;;;2.03;63.99
39769;BME280;38939;47.824;14.642;2023-03-12T05:32:53;96602.88;;;2.04;63.96
39769;BME280;38939;47.824;14.642;2023-03-12T05:33:55;96603.63;;;1.96;64.06
39769;BME280;38939;47.824;14.642;2023-03-12T05:34:57;96608.09;;;1.86;63.69
39769;BME280;38939;47.824;14.642;2023-03-12T05:35:59;96612.75;;;1.83;64.27